• Join FlightAware (Why Join?)
  • Login
  • US Flag 
01:32AM EST


 

Airport Tracker/Info


-or-


 

Live Flight TrackerFlight Track Log ✈ N21921 ✈ 30-Jul-2014 ✈ KSUS - KAKR

Flight Track Log - Related Links

Times and Time Zones

All times are in EDT time to prevent confusion due to time zone crossing. See the N21921 flight status page for this flight to view local times or setup timezone preferences in your user account.

Time Position Orientation Groundspeed Altitude Reporting Facility
EDT Latitude Longitude Course Direction KTS MPH feet Rate Location/Type
02:02PM 38.6500 -90.7000 42° Northeast 129 148 1,500  Level Gateway (St. Louis) TRACON
02:03PM 38.6500 -90.7500 270° West 141 162 2,500 900 Climbing Gateway (St. Louis) TRACON
02:04PM 38.6761 -90.7619 340° North 135 155 3,400 840 Climbing Kansas City Center
02:05PM 38.7181 -90.7669 355° North 142 163 4,300 840 Climbing Kansas City Center
02:06PM 38.7700 -90.7722 355° North 150 173 5,200 900 Climbing Kansas City Center
02:07PM 38.8231 -90.2675 42° Northeast  Level FlightAware Approximate
02:07PM 38.8136 -90.7633 North 158 182 6,200  Level Kansas City Center
02:08PM 38.8575 -90.7461 17° North 160 184 7,100 840 Climbing Kansas City Center
02:09PM 38.9019 -90.7267 19° North 163 188 8,000 840 Climbing Kansas City Center
02:10PM 38.9267 -90.6731 59° Northeast 173 199 8,900 960 Climbing Kansas City Center
02:11PM 38.9575 -90.6153 56° Northeast 174 200 10,000 960 Climbing Kansas City Center
02:12PM 38.9858 -90.5644 54° Northeast 173 199 10,900 540 Climbing Kansas City Center
02:13PM 39.0172 -90.5072 55° Northeast 180 207 11,200 120 Climbing Kansas City Center
02:14PM 39.0517 -90.4442 55° Northeast 208 239 11,200 60 Level Kansas City Center
02:15PM 39.0897 -90.3744 55° Northeast 217 250 11,400 420 Climbing Kansas City Center
02:16PM 39.1231 -90.3139 55° Northeast 210 242 12,100 720 Climbing Kansas City Center
02:17PM 39.1556 -90.2536 55° Northeast 195 224 12,900 660 Climbing Kansas City Center
02:18PM 39.1864 -90.1983 54° Northeast 194 223 13,500 600 Climbing Kansas City Center
02:19PM 39.2153 -90.1367 59° Northeast 193 222 14,200 660 Climbing Kansas City Center
02:20PM 39.2425 -90.0756 60° Northeast 193 222 14,900 600 Climbing Kansas City Center
02:21PM 39.2683 -90.0119 62° Northeast 196 226 15,500 600 Climbing Kansas City Center
02:22PM 39.2939 -89.9483 63° Northeast 198 228 16,200 660 Climbing Kansas City Center
02:23PM 39.3206 -89.8853 61° Northeast 199 229 16,900 600 Climbing Kansas City Center
02:24PM 39.3469 -89.8214 62° Northeast 199 229 17,500 480 Climbing Kansas City Center
02:26PM 39.3789 -89.7442 62° Northeast 201 231 17,900 420 Climbing Kansas City Center
02:27PM 39.4069 -89.6758 62° Northeast 211 243 18,400 480 Climbing Kansas City Center
02:28PM 39.4344 -89.6058 63° Northeast 213 245 18,900 240 Climbing Kansas City Center
02:29PM 39.4636 -89.5344 62° Northeast 219 252 19,000  Climbing Kansas City Center
02:30PM 39.4953 -89.4589 61° Northeast 233 268 19,000  Level Kansas City Center
02:31PM 39.5244 -89.3847 63° Northeast 233 268 19,000  Level Kansas City Center
02:32PM 39.5622 -89.2914 62° Northeast 240 276 19,000  Level Kansas City Center
02:33PM 39.5900 -89.2247 62° Northeast 240 276 19,000  Level Kansas City Center
02:34PM 39.6211 -89.1478 62° Northeast 239 275 19,000  Level Kansas City Center
02:35PM 39.6578 -89.0558 63° Northeast 239 275 19,000  Level Kansas City Center
02:36PM 39.6892 -88.9789 62° Northeast 239 275 19,000  Level Kansas City Center
02:37PM 39.7200 -88.9022 62° Northeast 239 275 19,000  Level Kansas City Center
02:38PM 39.7458 -88.8214 67° East 240 276 19,000  Level Kansas City Center
02:39PM 39.7633 -88.7361 75° East 244 281 19,000  Level Kansas City Center
02:40PM 39.7836 -88.6494 73° East 247 284 19,000  Level Kansas City Center
02:41PM 39.8050 -88.5478 75° East 247 284 19,000  Level Kansas City Center
02:42PM 39.8228 -88.4619 75° East 247 284 19,000  Level Kansas City Center
02:43PM 39.8400 -88.3767 75° East 247 284 19,000  Level Kansas City Center
02:44PM 39.8578 -88.2906 75° East 247 284 19,000  Level Kansas City Center
02:45PM 39.8769 -88.2008 74° East 247 284 19,000  Level Kansas City Center
02:46PM 39.8975 -88.0992 75° East 247 284 19,000  Level Chicago Center
02:47PM 39.9153 -88.0133 75° East 247 284 19,000  Level Chicago Center
02:48PM 39.9333 -87.9278 75° East 247 284 19,000  Level Chicago Center
02:49PM 39.9539 -87.8222 76° East 249 287 19,000  Level Chicago Center
02:50PM 39.9714 -87.7358 75° East 250 288 19,000  Level Chicago Center
02:51PM 39.9878 -87.6508 76° East 246 283 19,000  Level Chicago Center
02:53PM 40.0036 -87.5608 77° East 252 290 19,000  Level Chicago Center
02:54PM 40.0192 -87.4739 77° East 248 285 19,000  Level Chicago Center
02:55PM 40.0406 -87.3872 72° East 249 287 19,000  Level Chicago Center
02:56PM 40.0619 -87.2828 75° East 251 289 19,000  Level Chicago Center
02:57PM 40.0794 -87.1967 75° East 247 284 19,000 -60 Level Chicago Center
02:58PM 40.0947 -87.1086 77° East 248 285 18,900 -60 Descending Chicago Center
02:59PM 40.1128 -87.0219 75° East 247 284 18,900  Level Chicago Center
03:00PM 40.1294 -86.9342 76° East 247 284 18,900  Level Chicago Center
03:01PM 40.1456 -86.8492 76° East 244 281 19,000  Climbing Chicago Center
03:02PM 40.1658 -86.7472 75° East 240 276 19,000  Level Chicago Center
03:03PM 40.1817 -86.6600 77° East 243 280 19,000 -60 Level Chicago Center
03:04PM 40.1986 -86.5719 76° East 247 284 18,900 -60 Descending Chicago Center
03:05PM 40.2147 -86.4864 76° East 246 283 18,900  Level Chicago Center
03:06PM 40.2317 -86.3981 76° East 246 283 19,000  Climbing Chicago Center
03:07PM 40.2478 -86.3100 76° East 247 284 19,000  Level Chicago Center
03:08PM 40.2678 -86.2050 76° East 247 284 19,000  Level Chicago Center
03:09PM 40.2844 -86.1175 76° East 247 284 19,000  Level Chicago Center
03:10PM 40.3000 -86.0286 77° East 249 287 19,000  Level Chicago Center
03:11PM 40.3161 -85.9392 77° East 249 287 19,000  Level Chicago Center
03:12PM 40.3333 -85.8503 76° East 250 288 19,000  Level Chicago Center
03:13PM 40.3494 -85.7611 77° East 250 288 19,000  Level Chicago Center
03:14PM 40.3669 -85.6544 78° East 250 288 19,000  Level Indianapolis Center
03:15PM 40.3842 -85.5658 76° East 250 288 19,000  Level Chicago Center
03:16PM 40.4003 -85.4783 76° East 250 288 19,000  Level Chicago Center
03:17PM 40.4164 -85.3892 77° East 250 288 19,000  Level Chicago Center
03:18PM 40.4317 -85.2992 77° East 252 290 19,000  Level Chicago Center
03:19PM 40.4483 -85.2092 76° East 253 291 19,000  Level Chicago Center
03:20PM 40.4669 -85.1022 77° East 253 291 19,000  Level Chicago Center
03:22PM 40.4839 -84.9950 78° East 251 289 19,000  Level Indianapolis Center
03:23PM 40.4992 -84.9064 77° East 251 289 19,000  Level Indianapolis Center
03:24PM 40.5144 -84.8189 77° East 250 288 19,000  Level Indianapolis Center
03:25PM 40.5294 -84.7300 77° East 250 288 19,000  Level Indianapolis Center
03:26PM 40.5453 -84.6400 77° East 250 288 19,000  Level Indianapolis Center
03:27PM 40.5600 -84.5494 78° East 251 289 19,000  Level Indianapolis Center
03:28PM 40.5794 -84.4400 77° East 251 289 19,000  Level Indianapolis Center
03:29PM 40.5953 -84.3497 77° East 252 290 19,000  Level Indianapolis Center
03:30PM 40.6103 -84.2592 78° East 252 290 19,000  Level Indianapolis Center
03:31PM 40.6247 -84.1675 78° East 252 290 19,000  Level Indianapolis Center
03:32PM 40.6400 -84.0750 78° East 252 290 19,000  Level Indianapolis Center
03:33PM 40.6556 -83.9839 77° East 253 291 19,000  Level Indianapolis Center
03:34PM 40.6731 -83.8725 78° East 255 293 19,000  Level Indianapolis Center
03:35PM 40.6886 -83.7794 78° East 258 297 19,000  Level Indianapolis Center
03:36PM 40.7042 -83.6869 77° East 258 297 19,000  Level Indianapolis Center
03:37PM 40.7192 -83.5939 78° East 258 297 19,000  Level Indianapolis Center
03:38PM 40.7342 -83.5014 78° East 258 297 19,000  Level Indianapolis Center
03:39PM 40.7486 -83.4081 78° East 258 297 19,000  Level Indianapolis Center
03:40PM 40.7631 -83.3147 78° East 258 297 19,000 -420 Level Indianapolis Center
03:41PM 40.7814 -83.2028 78° East 268 308 18,200 -660 Descending Indianapolis Center
03:42PM 40.7961 -83.0992 79° East 279 321 17,700 -540 Descending Indianapolis Center
03:43PM 40.8128 -83.0000 77° East 279 321 17,100 -720 Descending Indianapolis Center
03:45PM 40.8317 -82.8767 79° East 280 322 16,100 -840 Descending Cleveland Center
03:46PM 40.8478 -82.7639 79° East 281 323 15,300 -780 Descending Cleveland Center
03:47PM 40.8631 -82.6650 78° East 276 318 14,600 -780 Descending Cleveland Center
03:48PM 40.8792 -82.5656 78° East 273 314 13,800 -720 Descending Cleveland Center
03:49PM 40.9000 -82.4686 74° East 274 315 13,100 -780 Descending Cleveland Center
03:50PM 40.9319 -82.3767 65° Northeast 274 315 12,200 -960 Descending Cleveland Center
03:51PM 40.9589 -82.2836 69° East 272 313 11,200 -1,200 Descending Cleveland Center
03:52PM 40.9567 -82.1633 91° East 280 322 9,800 -1,020 Descending Cleveland Center
03:53PM 40.9514 -82.0644 94° East 273 314 9,200 -420 Descending Cleveland Center
03:54PM 40.9650 -81.9789 78° East 239 275 9,000 -60 Descending Cleveland Center
03:55PM 40.9781 -81.8975 78° East 229 264 9,100  Climbing Cleveland Center
03:56PM 40.9886 -81.8158 80° East 228 262 9,000 -720 Descending Cleveland Center
03:57PM 41.0014 -81.7286 79° East 238 274 7,700 -1,860 Descending Cleveland Center
03:58PM 41.0169 -81.6147 80° East 265 305 5,200 -1,500 Descending Cleveland Center
03:59PM 41.0286 -81.5306 80° East 266 306 4,600 -600 Descending Cleveland Center
04:01PM 41.0333 -81.4667 90° East  Level FlightAware Approximate
04:08PM 41.0375 -81.4669 90° East  Level Estimated
04:09PM 41.0333 -81.4667 90° East  Level FlightAware Approximate